Tiempo atmosférico en la estación meteorológica de Garganta De La Olla, Cáceres (690 m.)



Fecha
DESCASC
Temp. máxima en grados centígrados (hora)
DESCASC
Temp. mínima en grados centígrados (hora)
DESCASC
Temp. media en grados centígrados
DESCASC
Racha de viento máxima en m/sg (hora)
DESCASC
Velocidad máxima media en intervalos de 10 minutos(hora)
DESCASC
Precipitaciones diarias en mm
DESCASC
Precipitaciones de 00:00 a 06:00 en mm
DESCASC
Precipitaciones de 06:00 a 12:00 en mm
DESCASC
Precipitaciones de 12:00 a 18:00 en mm
DESCASC
Precipitaciones de 18:00 a 24:00 en mm
DESCASC

Gráficas

Temp. máximas Temp. mínimas Temp. medias Precipitaciones Rachas de viento máximas Velocidades máximas media en intervalos de 10 minutos

Datos horarios

Fecha y hora oficial Temperatura (ºC) Velocidad del viento (km/h) Dirección del viento Racha (km/h) Dirección de racha Precipitación (mm) Presión (hPa) Tendencia (hPa) Humedad (%)
2019-12-14 23:00:00 9.8 4 Sudeste 13 Sudeste 0 -- -- 84
2019-12-14 22:00:00 10 0 Calma 14 Noroeste 0 -- -- 81
2019-12-14 21:00:00 10 4 Oeste 8 Sudoeste 0 -- -- 81
2019-12-14 20:00:00 9.7 3 Sudoeste 6 Noroeste 0 -- -- 88
2019-12-14 19:00:00 10 3 Sur 15 Nordeste 0 -- -- 86
2019-12-14 18:00:00 10.4 3 Sudoeste 29 Norte 0 -- -- 79
2019-12-14 17:00:00 11.1 3 Este 20 Noroeste 0 -- -- 75
2019-12-14 16:00:00 11.2 7 Norte 20 Norte 0 -- -- 75
2019-12-14 15:00:00 11.6 10 Noroeste 25 Noroeste 0 -- -- 72
2019-12-14 14:00:00 11.7 10 Noroeste 19 Noroeste 0 -- -- 72
2019-12-14 13:00:00 11.4 5 Este 19 Noroeste 0 -- -- 70
2019-12-14 12:00:00 11.2 3 Este 18 Norte 0 -- -- 74
2019-12-14 11:00:00 10.6 6 Sur 11 Sur 0 -- -- 80
2019-12-14 10:00:00 8.1 0 Calma 20 Sur 0 -- -- 95
2019-12-14 09:00:00 8.2 6 Este 28 Norte 0 -- -- 88
2019-12-14 08:00:00 9.2 13 Norte 36 Nordeste 0 -- -- 69
2019-12-14 07:00:00 7.6 4 Norte 37 Norte 0 -- -- 86
2019-12-14 06:00:00 7 0 Calma 10 Sur 0 -- -- 97
2019-12-14 05:00:00 7.9 4 Sudoeste 42 Noroeste 0 -- -- 94
2019-12-14 04:00:00 9.4 11 Noroeste 42 Noroeste 0 -- -- 75
2019-12-14 03:00:00 9.3 12 Noroeste 42 Noroeste 0 -- -- 79
2019-12-14 02:00:00 9.8 14 Noroeste 39 Noroeste 0 -- -- 76
2019-12-14 01:00:00 11 24 Norte 64 Norte 0 -- -- 70
2019-12-14 00:00:00 11 10 Norte 54 Norte 0 -- -- 72
2019-12-13 23:00:00 11.6 27 Noroeste 53 Noroeste 0 -- -- 72
2019-12-13 22:00:00 11.5 13 Sudoeste 43 Noroeste 0 -- -- 72
2019-12-13 21:00:00 12.2 10 Norte 35 Norte 0 -- -- 70
2019-12-13 20:00:00 12.4 11 Norte 55 Norte 0 -- -- 70
2019-12-13 19:00:00 12.6 18 Norte 53 Noroeste 0 -- -- 68
2019-12-13 18:00:00 12.9 30 Norte 61 Norte 0 -- -- 68
2019-12-13 17:00:00 13.1 32 Norte 62 Noroeste 0 -- -- 70
2019-12-13 16:00:00 12.9 39 Norte 57 Norte 0 -- -- 78
2019-12-13 15:00:00 13.7 31 Norte 51 Noroeste 0 -- -- 74
2019-12-13 14:00:00 12.1 21 Noroeste 42 Noroeste 0 -- -- 84
2019-12-13 13:00:00 12.7 18 Noroeste 43 Oeste 0 -- -- 82
2019-12-13 12:00:00 13.6 17 Noroeste 37 Oeste 0 -- -- 72
2019-12-13 11:00:00 12.1 19 Noroeste 39 Noroeste 0 -- -- 75
2019-12-13 10:00:00 11.9 17 Noroeste 51 Noroeste 0 -- -- 75
2019-12-13 09:00:00 10.7 22 Noroeste 48 Noroeste 0 -- -- 83
2019-12-13 08:00:00 11.1 26 Noroeste 51 Noroeste 0 -- -- 81
2019-12-13 07:00:00 11.3 23 Noroeste 51 Noroeste 0 -- -- 80
2019-12-13 06:00:00 11.2 15 Noroeste 40 Noroeste 0 -- -- 85
2019-12-13 05:00:00 11.6 14 Noroeste 43 Oeste 0 -- -- 84
2019-12-13 04:00:00 11.8 18 Noroeste 44 Noroeste 0 -- -- 85
2019-12-13 03:00:00 11.5 18 Oeste 54 Oeste 0 -- -- 90
2019-12-13 02:00:00 11.4 21 Oeste 49 Oeste 0 -- -- 89
2019-12-13 01:00:00 11.2 24 Oeste 50 Oeste 0 -- -- 91
2019-12-13 00:00:00 11.2 25 Oeste 47 Noroeste 0.2 -- -- 90
2019-12-12 23:00:00 10.4 19 Noroeste 45 Noroeste 0.4 -- -- 93
2019-12-12 22:00:00 10.1 21 Oeste 42 Oeste 0.2 -- -- 94
2019-12-12 21:00:00 10 23 Noroeste 46 Noroeste 0.6 -- -- 93
2019-12-12 20:00:00 9.4 12 Oeste 40 Noroeste 0.6 -- -- 94
2019-12-12 19:00:00 8.9 13 Oeste 37 Noroeste 0.8 -- -- 94
2019-12-12 18:00:00 8.4 9 Noroeste 37 Sudoeste 1 -- -- 94
2019-12-12 17:00:00 8.4 9 Oeste 32 Noroeste 0.4 -- -- 92
2019-12-12 16:00:00 8 8 Sudeste 22 Sudeste 0.2 -- -- 93
2019-12-12 15:00:00 8 5 Este 35 Noroeste 1.2 -- -- 93
2019-12-12 14:00:00 7.4 6 Nordeste 25 Norte 0.6 -- -- 94
2019-12-12 13:00:00 7.2 6 Norte 37 Noroeste 0.2 -- -- 91
2019-12-12 12:00:00 7.7 21 Noroeste 39 Noroeste 0 -- -- 88
2019-12-12 11:00:00 7 17 Noroeste 29 Noroeste 0 -- -- 88
2019-12-12 10:00:00 6.7 18 Norte 37 Norte 0 -- -- 86
2019-12-12 09:00:00 7.8 22 Norte 48 Norte 0 -- -- 70
2019-12-12 08:00:00 7.9 26 Norte 46 Norte 0 -- -- 69
2019-12-12 07:00:00 8.2 25 Norte 44 Norte 0 -- -- 67
2019-12-12 06:00:00 8.2 21 Norte 44 Noroeste 0 -- -- 65
2019-12-12 05:00:00 8.3 21 Norte 55 Norte 0 -- -- 63
2019-12-12 04:00:00 8.4 5 Sudoeste 46 Nordeste 0 -- -- 57
2019-12-12 03:00:00 8.5 14 Norte 48 Norte 0 -- -- 56
2019-12-12 02:00:00 8.1 19 Norte 55 Noroeste 0 -- -- 59
2019-12-12 01:00:00 8.4 24 Norte 53 Norte 0 -- -- 58
2019-12-12 00:00:00 7.6 13 Nordeste 38 Norte 0 -- -- 59
2019-12-11 23:00:00 8.4 21 Norte 46 Norte 0 -- -- 56
2019-12-11 22:00:00 8.5 15 Nordeste 49 Norte 0 -- -- 54
2019-12-11 21:00:00 7.5 19 Noroeste 32 Norte 0 -- -- 54
2019-12-11 20:00:00 7.5 5 Sudeste 61 Norte 0 -- -- 54
2019-12-11 19:00:00 7.6 40 Noroeste 69 Noroeste 0 -- -- 54
2019-12-11 18:00:00 8.1 42 Noroeste 66 Norte 0 -- -- 54
2019-12-11 17:00:00 8.9 50 Noroeste 71 Noroeste 0 -- -- 54
2019-12-11 16:00:00 10 46 Norte 70 Noroeste 0 -- -- 46
2019-12-11 15:00:00 10.2 40 Noroeste 62 Noroeste 0 -- -- 52
2019-12-11 14:00:00 10.8 31 Noroeste 60 Norte 0 -- -- 49
2019-12-11 13:00:00 10.9 27 Norte 56 Noroeste 0 -- -- 56
2019-12-11 12:00:00 10.4 33 Noroeste 60 Norte 0 -- -- 65
2019-12-11 11:00:00 9 40 Norte 60 Norte 0 -- -- 83
2019-12-11 10:00:00 7.9 22 Norte 42 Noroeste 1.4 -- -- 94
2019-12-11 09:00:00 4.9 13 Noroeste 26 Noroeste 0.2 -- -- 97
2019-12-11 08:00:00 3.2 3 Sur 8 Sur 0 -- -- 96
2019-12-11 07:00:00 3.2 3 Sudoeste 6 Sudoeste 0 -- -- 95
2019-12-11 06:00:00 2.9 0 Calma 2 Sudeste 0 -- -- 94
2019-12-11 05:00:00 2.2 0 Calma 5 Noroeste 0 -- -- 94
2019-12-11 04:00:00 2.8 0 Calma 6 Sudoeste 0 -- -- 91
2019-12-11 03:00:00 3.8 0 Calma 5 Noroeste 0 -- -- 89
2019-12-11 02:00:00 3.3 0 Calma 6 Sur 0 -- -- 89
2019-12-11 01:00:00 3.8 0 Calma 4 Noroeste 0 -- -- 86
2019-12-11 00:00:00 3.9 0 Calma 2 Sudoeste 0 -- -- 88
2019-12-10 23:00:00 3.9 0 Calma 8 Sudoeste 0 -- -- 89
2019-12-10 22:00:00 4.7 0 Calma 6 Noroeste 0 -- -- 81
2019-12-10 21:00:00 6 3 Sudoeste 5 Noroeste 0 -- -- 75
2019-12-10 20:00:00 4.8 3 Noroeste 6 Noroeste 0 -- -- 89
2019-12-10 19:00:00 5 2 Noroeste 4 Noroeste 0 -- -- 100
2019-12-10 18:00:00 5.4 0 Calma 5 Sudeste 0 -- -- 99
2019-12-10 17:00:00 5.7 0 Calma 7 Sur 0 -- -- 98
2019-12-10 16:00:00 6.2 4 Sur 9 Sur 0 -- -- 96
2019-12-10 15:00:00 6.2 3 Sur 9 Sudeste 0 -- -- 97
2019-12-10 14:00:00 5.9 3 Sur 9 Sur 0 -- -- 97
2019-12-10 13:00:00 6 2 Sudeste 8 Sur 0 -- -- 98
2019-12-10 12:00:00 5.6 4 Sudeste 7 Sur 0 -- -- 95
2019-12-10 11:00:00 6.2 7 Sur 11 Sur 0 -- -- 85
2019-12-10 10:00:00 6.7 0 Calma 3 Noroeste 0 -- -- 73
2019-12-10 09:00:00 4.7 0 Calma 9 Noroeste 0 -- -- 82
2019-12-10 08:00:00 5.2 2 Sur 14 Noroeste 0 -- -- 79
2019-12-10 07:00:00 3.5 0 Calma 9 Noroeste 0 -- -- 82
2019-12-10 06:00:00 3.2 0 Calma 4 Norte 0 -- -- 80
2019-12-10 05:00:00 5.2 0 Calma 8 Norte 0 -- -- 65
2019-12-10 04:00:00 2.9 2 Norte 6 Sudoeste 0 -- -- 91
2019-12-10 03:00:00 3.6 2 Norte 5 Noroeste 0 -- -- 87
2019-12-10 02:00:00 4.8 4 Noroeste 7 Noroeste 0 -- -- 100
2019-12-10 01:00:00 5.3 2 Sudoeste 10 Oeste 0 -- -- 100
2019-12-10 00:00:00 4.9 0 Calma 4 Norte 0 -- -- 97
2019-12-09 23:00:00 5.4 3 Sudoeste 6 Noroeste 0 -- -- 99
2019-12-09 22:00:00 5.8 0 Calma 11 Sudoeste 0 -- -- 100
2019-12-09 21:00:00 6.5 3 Nordeste 11 Sudoeste 0 -- -- 100
2019-12-09 20:00:00 6.5 0 Calma 13 Sudeste 0 -- -- 100
2019-12-09 19:00:00 6.6 0 Calma 6 Sur 0 -- -- 99
2019-12-09 18:00:00 7.2 0 Calma 5 Sur 0 -- -- 98
2019-12-09 17:00:00 8 2 Nordeste 9 Sur 0 -- -- 98
2019-12-09 16:00:00 8.3 4 Sur 7 Sur 0 -- -- 96
2019-12-09 15:00:00 7.7 4 Sudeste 7 Sudeste 0 -- -- 98
2019-12-09 14:00:00 7.4 2 Sur 9 Sudeste 0 -- -- 100
2019-12-09 13:00:00 7.2 0 Calma 12 Sur 0 -- -- 100
2019-12-09 12:00:00 6.7 2 Sudeste 5 Noroeste 0 -- -- 100
2019-12-09 11:00:00 6 3 Sudeste 8 Sur 0 -- -- 100
2019-12-09 10:00:00 4.6 4 Sudoeste 8 Noroeste 0 -- -- 100
2019-12-09 09:00:00 3.5 3 Sudoeste 12 Sudoeste 0 -- -- 99
2019-12-09 08:00:00 3.6 2 Sur 5 Sur 0 -- -- 92
2019-12-09 07:00:00 4.3 0 Calma 5 Noroeste 0 -- -- 82
2019-12-09 06:00:00 2.7 2 Norte 10 Oeste 0 -- -- 100
2019-12-09 05:00:00 2.9 0 Calma 9 Sudoeste 0 -- -- 99
2019-12-09 04:00:00 4.1 2 Sur 16 Sudoeste 0 -- -- 99
2019-12-09 03:00:00 3.8 3 Sur 10 Sur 0 -- -- 97
2019-12-09 02:00:00 5.5 2 Norte 14 Noroeste 0 -- -- 94
2019-12-09 01:00:00 5.5 3 Nordeste 12 Sudoeste 0 -- -- 99
2019-12-09 00:00:00 6.6 3 Sur 15 Noroeste 0 -- -- 98
2019-12-08 23:00:00 11.8 6 Oeste 12 Sur 0 -- -- 91
2019-12-08 22:00:00 8.2 4 Oeste 19 Sudoeste 0 -- -- 97
2019-12-08 21:00:00 6.9 6 Sur 13 Sudoeste 0.2 -- -- 100
2019-12-08 20:00:00 6.6 2 Sur 9 Sudoeste 0 -- -- 100
2019-12-08 19:00:00 7 0 Calma 4 Sur 0 -- -- 100
2019-12-08 18:00:00 7.1 0 Calma 8 Sur 0 -- -- 100
2019-12-08 17:00:00 7.4 3 Sur 19 Sur 0.2 -- -- 99
2019-12-08 16:00:00 8.3 3 Nordeste 22 Noroeste 0.2 -- -- 96
2019-12-08 15:00:00 8.9 6 Sur 13 Sudoeste 0 -- -- 94
2019-12-08 14:00:00 9 3 Sur 10 Sur 0 -- -- 93
2019-12-08 13:00:00 9 2 Sudeste 6 Sudeste 0 -- -- 93
2019-12-08 12:00:00 8.4 0 Calma 6 Sudeste 0 -- -- 95
2019-12-08 11:00:00 7.1 3 Sur 6 Sur 0 -- -- 96
2019-12-08 10:00:00 7.4 3 Sur 5 Sudeste 0 -- -- 93
2019-12-08 09:00:00 6.4 2 Sudoeste 7 Noroeste 0 -- -- 98
2019-12-08 08:00:00 5.7 0 Calma 5 Noroeste 0 -- -- 96
2019-12-08 07:00:00 5.7 0 Calma 3 Sudoeste 0 -- -- 95
2019-12-08 06:00:00 6.3 0 Calma 4 Sur 0 -- -- 94
2019-12-08 05:00:00 7.3 3 Sur 8 Noroeste 0 -- -- 88
2019-12-08 04:00:00 7.3 0 Calma 9 Noroeste 0 -- -- 89
2019-12-08 03:00:00 7.5 0 Calma 9 Noroeste 0 -- -- 89
2019-12-08 02:00:00 7.5 0 Calma 3 Norte 0 -- -- 88
2019-12-08 01:00:00 8 2 Oeste 4 Noroeste 0 -- -- 86
2019-12-08 00:00:00 8.1 2 Sudoeste 8 Noroeste 0 -- -- 83
2019-12-07 23:00:00 7.8 3 Noroeste 8 Noroeste 0 -- -- 88
2019-12-07 22:00:00 7.9 0 Calma 9 Noroeste 0 -- -- 89
2019-12-07 21:00:00 8 2 Noroeste 5 Noroeste 0 -- -- 91
2019-12-07 20:00:00 8.1 0 Calma 6 Noroeste 0 -- -- 90
2019-12-07 19:00:00 8.7 3 Sudoeste 9 Noroeste 0 -- -- 88
2019-12-07 18:00:00 9.3 2 Noroeste 5 Sudoeste 0 -- -- 86
2019-12-07 17:00:00 10.8 3 Sudoeste 10 Sur 0 -- -- 80
2019-12-07 16:00:00 13 8 Sur 14 Sur 0 -- -- 72
2019-12-07 15:00:00 13.4 7 Sur 14 Sur 0 -- -- 70
2019-12-07 14:00:00 12.8 6 Sur 12 Sudeste 0 -- -- 70
2019-12-07 13:00:00 12 7 Sur 13 Sudeste 0 -- -- 74
2019-12-07 12:00:00 10.9 5 Sudeste 8 Sudeste 0 -- -- 75
2019-12-07 11:00:00 9.2 5 Sudeste 14 Sur 0 -- -- 80
2019-12-07 10:00:00 8.3 3 Sudeste 5 Nordeste 0 -- -- 84
2019-12-07 09:00:00 7.1 2 Sur 10 Noroeste 0 -- -- 87
2019-12-07 08:00:00 6.7 3 Noroeste 8 Noroeste 0 -- -- 87
2019-12-07 07:00:00 7.1 3 Noroeste 6 Oeste 0 -- -- 86
2019-12-07 06:00:00 6.9 2 Sur 10 Noroeste 0 -- -- 86
2019-12-07 05:00:00 7 7 Noroeste 12 Noroeste 0 -- -- 85
2019-12-07 04:00:00 7.4 3 Noroeste 12 Noroeste 0 -- -- 83
2019-12-07 03:00:00 7.1 2 Oeste 10 Noroeste 0 -- -- 86
2019-12-07 02:00:00 7.2 5 Noroeste 9 Noroeste 0 -- -- 85
2019-12-07 01:00:00 7.7 3 Oeste 13 Noroeste 0 -- -- 85
2019-12-07 00:00:00 7 8 Noroeste 13 Noroeste 0 -- -- 87
2019-12-06 23:00:00 8.1 7 Noroeste 13 Noroeste 0 -- -- 83
2019-12-06 22:00:00 9.5 2 Oeste 9 Noroeste 0 -- -- 79
2019-12-06 21:00:00 8.6 4 Noroeste 12 Noroeste 0 -- -- 83
2019-12-06 20:00:00 9.5 4 Noroeste 8 Noroeste 0 -- -- 78
2019-12-06 19:00:00 10 2 Sur 9 Noroeste 0 -- -- 80
2019-12-06 18:00:00 10.5 4 Noroeste 8 Noroeste 0 -- -- 77
2019-12-06 17:00:00 11.6 4 Sur 12 Sur 0 -- -- 72
2019-12-06 16:00:00 13.6 4 Sur 12 Sur 0 -- -- 65
2019-12-06 15:00:00 13.9 6 Sur 17 Sur 0 -- -- 62
2019-12-06 14:00:00 13.6 7 Sur 22 Sur 0 -- -- 62
2019-12-06 13:00:00 12.3 3 Este 17 Sudeste 0 -- -- 65
2019-12-06 12:00:00 11.4 10 Sudeste 20 Sur 0 -- -- 69
2019-12-06 11:00:00 12.1 5 Sur 15 Sudeste 0 -- -- 65
2019-12-06 10:00:00 10.4 4 Sudeste 11 Sudeste 0 -- -- 71
2019-12-06 09:00:00 9.2 0 Calma 9 Norte 0 -- -- 76
2019-12-06 08:00:00 8.7 3 Noroeste 10 Noroeste 0 -- -- 77
2019-12-06 07:00:00 8.1 2 Sur 9 Sudoeste 0 -- -- 80
2019-12-06 06:00:00 7.6 3 Noroeste 9 Noroeste 0 -- -- 81
2019-12-06 05:00:00 8.1 3 Sudoeste 6 Sudoeste 0 -- -- 78
2019-12-06 04:00:00 8.3 2 Sudoeste 12 Noroeste 0 -- -- 76
2019-12-06 03:00:00 9.3 6 Noroeste 14 Sudoeste 0 -- -- 73
2019-12-06 02:00:00 10.1 13 Sur 23 Sur 0 -- -- 70
2019-12-06 01:00:00 9.8 8 Sur 19 Sur 0 -- -- 71
2019-12-06 00:00:00 9.6 12 Sur 20 Sur 0 -- -- 72
2019-12-05 23:00:00 9.6 2 Sur 10 Noroeste 0 -- -- 73
2019-12-05 22:00:00 9.5 0 Calma 21 Sur 0 -- -- 73
2019-12-05 21:00:00 11.1 6 Noroeste 12 Noroeste 0 -- -- 64
2019-12-05 20:00:00 10.5 5 Noroeste 17 Noroeste 0 -- -- 67
2019-12-05 19:00:00 10 4 Sudoeste 15 Noroeste 0 -- -- 73
2019-12-05 18:00:00 11.3 7 Sudeste 15 Sudeste 0 -- -- 67
2019-12-05 17:00:00 11.5 10 Sur 18 Sur 0 -- -- 66
2019-12-05 16:00:00 13.1 2 Oeste 12 Sur 0 -- -- 62
2019-12-05 15:00:00 13.3 9 Sur 19 Sudeste 0 -- -- 61
2019-12-05 14:00:00 13.3 4 Sudeste 20 Sur 0 -- -- 62
2019-12-05 13:00:00 12.2 4 Sur 15 Sur 0 -- -- 66
2019-12-05 12:00:00 10.8 2 Norte 11 Sur 0 -- -- 76
2019-12-05 11:00:00 9.9 8 Sur 12 Sur 0 -- -- 74
2019-12-05 10:00:00 8.9 0 Calma 9 Noroeste 0 -- -- 79
2019-12-05 09:00:00 7.3 3 Norte 13 Noroeste 0 -- -- 82
2019-12-05 08:00:00 7.4 2 Norte 9 Noroeste 0 -- -- 80
2019-12-05 07:00:00 8.1 0 Calma 12 Noroeste 0 -- -- 76
2019-12-05 06:00:00 7 6 Noroeste 14 Noroeste 0 -- -- 82
2019-12-05 05:00:00 7.6 5 Oeste 11 Noroeste 0 -- -- 77
2019-12-05 04:00:00 8.4 4 Noroeste 9 Noroeste 0 -- -- 73
2019-12-05 03:00:00 9 3 Noroeste 8 Noroeste 0 -- -- 72
2019-12-05 02:00:00 8.7 4 Norte 11 Noroeste 0 -- -- 73
2019-12-05 01:00:00 7.8 9 Noroeste 16 Noroeste 0 -- -- 75
2019-12-05 00:00:00 7.3 7 Noroeste 11 Noroeste 0 -- -- 78
2019-12-04 23:00:00 7.8 2 Oeste 13 Noroeste 0 -- -- 77
2019-12-04 22:00:00 7.4 10 Noroeste 14 Noroeste 0 -- -- 79
2019-12-04 21:00:00 7.6 4 Sudoeste 14 Noroeste 0 -- -- 82
2019-12-04 20:00:00 6.6 4 Norte 12 Noroeste 0 -- -- 90
2019-12-04 19:00:00 6.6 4 Sudoeste 7 Sudoeste 0 -- -- 92
2019-12-04 18:00:00 7.7 5 Sudoeste 8 Sur 0 -- -- 87
2019-12-04 17:00:00 8.6 2 Sudoeste 9 Sudeste 0 -- -- 82
2019-12-04 16:00:00 9.1 4 Sudeste 8 Sudeste 0 -- -- 80
2019-12-04 15:00:00 9 3 Sudeste 14 Sur 0 -- -- 81
2019-12-04 14:00:00 9.6 6 Sudeste 12 Sudeste 0 -- -- 73
2019-12-04 13:00:00 8.5 4 Sudeste 9 Sur 0 -- -- 79
2019-12-04 12:00:00 9.1 5 Sur 12 Sur 0 -- -- 75
2019-12-04 11:00:00 8.5 2 Nordeste 13 Sur 0 -- -- 76
2019-12-04 10:00:00 7.5 3 Sudoeste 10 Oeste 0 -- -- 80
2019-12-04 09:00:00 4.9 5 Noroeste 9 Noroeste 0 -- -- 85
2019-12-04 08:00:00 5.4 5 Oeste 8 Sur 0 -- -- 83
2019-12-04 07:00:00 4.7 6 Noroeste 16 Noroeste 0 -- -- 83
2019-12-04 06:00:00 5.3 5 Noroeste 9 Noroeste 0 -- -- 82
2019-12-04 05:00:00 6.6 2 Sur 7 Noroeste 0 -- -- 79
2019-12-04 04:00:00 6.4 4 Noroeste 6 Noroeste 0 -- -- 81
2019-12-04 03:00:00 7.1 2 Sudoeste 10 Sur 0 -- -- 77
2019-12-04 02:00:00 7.6 4 Sur 11 Noroeste 0 -- -- 76
2019-12-04 01:00:00 7.7 0 Calma 16 Sudeste 0 -- -- 72
2019-12-04 00:00:00 7.7 7 Sur 13 Sur 0 -- -- 79
2019-12-03 23:00:00 7.8 5 Sudoeste 14 Sur 0 -- -- 78
2019-12-03 22:00:00 8.6 6 Sur 14 Sur 0 -- -- 73
2019-12-03 21:00:00 8.4 3 Sudoeste 16 Sudoeste 0 -- -- 73
2019-12-03 20:00:00 8.1 6 Sudoeste 13 Oeste 0 -- -- 75
2019-12-03 19:00:00 7.5 2 Oeste 12 Sur 0 -- -- 77
2019-12-03 18:00:00 8.1 5 Sur 12 Sur 0 -- -- 75
2019-12-03 17:00:00 8.9 8 Sur 18 Sur 0 -- -- 71
2019-12-03 16:00:00 10.8 11 Sur 21 Sur 0 -- -- 63
2019-12-03 15:00:00 10.9 8 Sudeste 21 Sudeste 0 -- -- 61
2019-12-03 14:00:00 11.3 9 Sur 25 Sur 0 -- -- 60
2019-12-03 13:00:00 10.8 4 Sur 16 Sudeste 0 -- -- 59
2019-12-03 12:00:00 9.4 5 Sur 10 Sudeste 0 -- -- 69
2019-12-03 11:00:00 7.6 4 Sudeste 12 Sudeste 0 -- -- 71
2019-12-03 10:00:00 6.6 0 Calma 8 Sudoeste 0 -- -- 77
2019-12-03 09:00:00 5 0 Calma 8 Norte 0 -- -- 78
2019-12-03 08:00:00 4.3 3 Sudoeste 11 Noroeste 0 -- -- 79
2019-12-03 07:00:00 4.8 0 Calma 11 Noroeste 0 -- -- 76
2019-12-03 06:00:00 4.5 5 Noroeste 9 Noroeste 0 -- -- 78
2019-12-03 05:00:00 5.5 5 Sudoeste 12 Noroeste 0 -- -- 74
2019-12-03 04:00:00 5 2 Noroeste 11 Noroeste 0 -- -- 76
2019-12-03 03:00:00 5.1 6 Noroeste 10 Noroeste 0 -- -- 77
2019-12-03 02:00:00 6.3 5 Sur 12 Sudoeste 0 -- -- 73
2019-12-03 01:00:00 6.4 4 Sudoeste 10 Norte 0 -- -- 75
2019-12-03 00:00:00 6.3 0 Calma 13 Noroeste 0 -- -- 78
2019-12-02 23:00:00 6.7 2 Sur 9 Sudoeste 0 -- -- 75
2019-12-02 22:00:00 7.3 3 Oeste 10 Noroeste 0 -- -- 71
2019-12-02 21:00:00 7.3 0 Calma 9 Noroeste 0 -- -- 72
2019-12-02 20:00:00 8.4 2 Oeste 9 Sudeste 0 -- -- 67
2019-12-02 19:00:00 8.5 3 Norte 10 Noroeste 0 -- -- 64
2019-12-02 18:00:00 9.3 5 Noroeste 21 Sur 0 -- -- 64
2019-12-02 17:00:00 10.3 8 Sur 28 Sur 0 -- -- 60
2019-12-02 16:00:00 11.5 15 Sur 32 Sudeste 0 -- -- 58
2019-12-02 15:00:00 12.3 16 Sur 28 Sur 0 -- -- 57
2019-12-02 14:00:00 11.6 15 Sur 26 Sur 0 -- -- 59
2019-12-02 13:00:00 12.2 6 Sur 22 Sur 0 -- -- 64
2019-12-02 12:00:00 11.2 4 Sudoeste 15 Sur 0 -- -- 63
2019-12-02 11:00:00 10.3 5 Sudeste 12 Sur 0 -- -- 77
2019-12-02 10:00:00 7.7 3 Este 16 Noroeste 0 -- -- 86
2019-12-02 09:00:00 5 12 Noroeste 17 Noroeste 0 -- -- 93
2019-12-02 08:00:00 5.6 3 Sudoeste 9 Noroeste 0 -- -- 90
2019-12-02 07:00:00 6 0 Calma 10 Noroeste 0 -- -- 94
2019-12-02 06:00:00 6.3 3 Sudoeste 14 Noroeste 0 -- -- 92
2019-12-02 05:00:00 5.9 0 Calma 15 Oeste 0.4 -- -- 96
2019-12-02 04:00:00 5.8 5 Noroeste 10 Norte 0.2 -- -- 98
2019-12-02 03:00:00 5.6 3 Norte 8 Noroeste 0.4 -- -- 99
2019-12-02 02:00:00 5.7 4 Noroeste 8 Noroeste 0.2 -- -- 98
2019-12-02 01:00:00 6.2 3 Oeste 9 Sudoeste 0.6 -- -- 97
2019-12-02 00:00:00 6.3 2 Oeste 8 Noroeste 0 -- -- 94
2019-12-01 23:00:00 5.5 0 Calma 10 Noroeste 0 -- -- 95
2019-12-01 22:00:00 5.5 6 Noroeste 14 Noroeste 0 -- -- 96
2019-12-01 21:00:00 5.7 4 Noroeste 9 Sudoeste 0 -- -- 98
2019-12-01 20:00:00 5.9 0 Calma 10 Noroeste 0 -- -- 96
2019-12-01 19:00:00 5.8 4 Norte 17 Noroeste 0 -- -- 96
2019-12-01 18:00:00 6.9 3 Sudoeste 8 Sudoeste 0 -- -- 91
2019-12-01 17:00:00 7.8 3 Sudoeste 12 Sur 0 -- -- 97
2019-12-01 16:00:00 8.3 7 Sur 13 Sur 0.4 -- -- 99
2019-12-01 15:00:00 8.1 3 Sur 9 Sudoeste 0 -- -- 100
2019-12-01 14:00:00 8 4 Sur 9 Sur 0.6 -- -- 100
2019-12-01 13:00:00 8.3 0 Calma 8 Sur 0.6 -- -- 100
2019-12-01 12:00:00 8.1 4 Sur 13 Sur 0.6 -- -- 100
2019-12-01 11:00:00 7.9 0 Calma 7 Noroeste 1.8 -- -- 100
2019-12-01 10:00:00 7.4 0 Calma 4 Norte 4.6 -- -- 100
2019-12-01 09:00:00 7.2 0 Calma 8 Sur 5.6 -- -- 100
2019-12-01 08:00:00 7.1 5 Sur 10 Sur 3.4 -- -- 100
2019-12-01 07:00:00 7 0 Calma 6 Sur 2.4 -- -- 100
2019-12-01 06:00:00 7 0 Calma 14 Sur 2.2 -- -- 99
2019-12-01 05:00:00 8 4 Sur 26 Norte 0.2 -- -- 91
2019-12-01 04:00:00 7.2 4 Noroeste 14 Oeste 0 -- -- 87
2019-12-01 03:00:00 6.6 2 Oeste 13 Norte 0 -- -- 87
2019-12-01 02:00:00 6.6 8 Noroeste 24 Norte 0 -- -- 80
2019-12-01 01:00:00 7.5 10 Noroeste 36 Noroeste 0 -- -- 73
2019-12-01 00:00:00 7.9 23 Norte 39 Noroeste 0 -- -- 70
2019-11-30 23:00:00 8.1 23 Norte 44 Noroeste 0 -- -- 64
2019-11-30 22:00:00 9 22 Norte 47 Norte 0 -- -- 50
2019-11-30 21:00:00 9.8 27 Norte 49 Norte 0 -- -- 57
2019-11-30 20:00:00 10.1 26 Norte 51 Noroeste 0.6 -- -- 86
2019-11-30 19:00:00 10.5 23 Noroeste 45 Noroeste 3.2 -- -- 95
2019-11-30 18:00:00 12 0 Calma 21 Noroeste 0.6 -- -- 97
2019-11-30 17:00:00 12.3 5 Oeste 25 Oeste 1.4 -- -- 94
2019-11-30 16:00:00 11.9 3 Este 17 Sudoeste 2.6 -- -- 100
2019-11-30 15:00:00 11.6 3 Este 8 Sudeste 3 -- -- 100
2019-11-30 14:00:00 11.1 2 Sudeste 10 Sudeste 3 -- -- 100
2019-11-30 13:00:00 11.1 6 Sudeste 12 Sur 1.6 -- -- 100
2019-11-30 12:00:00 11 6 Sudeste 10 Sudeste 1.2 -- -- 100
2019-11-30 11:00:00 11 3 Sudeste 5 Sudeste 0.8 -- -- 100
2019-11-30 10:00:00 11 0 Calma 5 Este 0.2 -- -- 99
2019-11-30 09:00:00 11.2 2 Sur 15 Oeste 0.2 -- -- 95
2019-11-30 08:00:00 11.4 5 Oeste 13 Norte 0 -- -- 93
2019-11-30 07:00:00 11.6 4 Oeste 19 Oeste 0 -- -- 94
2019-11-30 06:00:00 11.6 4 Oeste 17 Noroeste 0 -- -- 95
2019-11-30 05:00:00 12.2 6 Noroeste 26 Noroeste 0.2 -- -- 93
2019-11-30 04:00:00 12.1 9 Noroeste 22 Noroeste 0 -- -- 95
2019-11-30 03:00:00 11.9 7 Norte 19 Noroeste 0.2 -- -- 98
2019-11-30 02:00:00 12 2 Norte 6 Nordeste 0.6 -- -- 100
2019-11-30 01:00:00 12.1 3 Noroeste 6 Noroeste 0.8 -- -- 100
2019-11-30 00:00:00 12.2 3 Sur 9 Noroeste 0 -- -- 98
2019-11-29 23:00:00 12.2 0 Calma 6 Noroeste 0 -- -- 100
2019-11-29 22:00:00 12.2 2 Norte 6 Sur 0.4 -- -- 100
2019-11-29 21:00:00 12.4 2 Sur 6 Sudoeste 0.4 -- -- 100
2019-11-29 20:00:00 12.4 0 Calma 6 Oeste 0 -- -- 100
2019-11-29 19:00:00 12.4 0 Calma 4 Norte 0.4 -- -- 100
2019-11-29 18:00:00 12.6 0 Calma 6 Sudeste 0.4 -- -- 100
2019-11-29 17:00:00 12.9 2 Nordeste 9 Sudeste 1 -- -- 100
2019-11-29 16:00:00 13 5 Sudeste 10 Sudeste 0.6 -- -- 100
2019-11-29 15:00:00 13.3 5 Sur 10 Sur 0.8 -- -- 99
2019-11-29 14:00:00 13.4 4 Sur 12 Noroeste 0 -- -- 99
2019-11-29 13:00:00 13.1 3 Este 7 Sur 0.4 -- -- 100
2019-11-29 12:00:00 12.3 3 Sur 11 Sur 0.6 -- -- 100
2019-11-29 11:00:00 11.9 2 Sur 9 Sur 1 -- -- 100
2019-11-29 10:00:00 11.6 3 Sur 4 Sur 1.2 -- -- 100
2019-11-29 09:00:00 11.3 0 Calma 4 Oeste 1 -- -- 100
2019-11-29 08:00:00 11.1 0 Calma 5 Sudoeste 1 -- -- 100
2019-11-29 07:00:00 11.1 0 Calma 3 Sudoeste 1 -- -- 100
2019-11-29 06:00:00 11.2 0 Calma 6 Sudoeste 0.6 -- -- 100
2019-11-29 05:00:00 11.3 0 Calma 4 Noroeste 1.2 -- -- 100
2019-11-29 04:00:00 11.3 0 Calma 5 Sudeste 1.8 -- -- 100
2019-11-29 03:00:00 11.4 0 Calma 11 Este 1.4 -- -- 98
2019-11-29 02:00:00 11.8 4 Nordeste 13 Noroeste 0.2 -- -- 95
2019-11-29 01:00:00 12 2 Este 28 Oeste 0.2 -- -- 92
2019-11-29 00:00:00 11.9 7 Oeste 24 Oeste 0 -- -- 94
2019-11-28 23:00:00 12.3 12 Oeste 31 Oeste 0 -- -- 89
2019-11-28 22:00:00 12.6 9 Oeste 23 Oeste 0 -- -- 85
2019-11-28 21:00:00 12.5 4 Oeste 30 Oeste 0 -- -- 83
2019-11-28 20:00:00 12.2 8 Noroeste 25 Oeste 0 -- -- 84
2019-11-28 19:00:00 11.8 4 Oeste 29 Oeste 0 -- -- 86
2019-11-28 18:00:00 11.5 12 Oeste 29 Sudoeste 0.2 -- -- 90
2019-11-28 17:00:00 11.5 3 Sudeste 28 Norte 0 -- -- 91
2019-11-28 16:00:00 11.1 8 Noroeste 31 Sudoeste 0.6 -- -- 94
2019-11-28 15:00:00 10.8 2 Este 8 Sudeste 0.8 -- -- 100
2019-11-28 14:00:00 10.5 3 Sudeste 13 Sudeste 0.6 -- -- 100
2019-11-28 13:00:00 10.7 5 Sudeste 13 Sudeste 0 -- -- 100
2019-11-28 12:00:00 10.1 2 Sur 7 Este 0.4 -- -- 100
2019-11-28 11:00:00 9.3 0 Calma 4 Sudeste 0.4 -- -- 100
2019-11-28 10:00:00 8.9 0 Calma 4 Norte 0.2 -- -- 100
2019-11-28 09:00:00 8.8 0 Calma 4 Este 0.4 -- -- 99
2019-11-28 08:00:00 9 0 Calma 8 Sudeste 0 -- -- 97
2019-11-28 07:00:00 9.5 2 Sur 10 Oeste 0 -- -- 91
2019-11-28 06:00:00 9.7 3 Sudeste 25 Noroeste 0 -- -- 89
2019-11-28 05:00:00 9.5 3 Sudeste 11 Norte 0 -- -- 96
2019-11-28 04:00:00 9.8 4 Sur 20 Norte 0 -- -- 90
2019-11-28 03:00:00 9.7 11 Noroeste 35 Noroeste 0 -- -- 89
2019-11-28 02:00:00 9.4 10 Noroeste 29 Noroeste 0 -- -- 87
2019-11-28 01:00:00 9.7 7 Noroeste 31 Noroeste 0 -- -- 85
2019-11-28 00:00:00 9.7 10 Norte 28 Norte 0 -- -- 85
2019-11-27 23:00:00 10.2 9 Norte 25 Noroeste 0 -- -- 83
2019-11-27 22:00:00 10.3 6 Norte 32 Noroeste 0 -- -- 82
2019-11-27 21:00:00 10.7 15 Noroeste 35 Norte 0 -- -- 80
2019-11-27 20:00:00 10.5 8 Norte 27 Noroeste 0 -- -- 82
2019-11-27 19:00:00 10.7 8 Noroeste 26 Noroeste 0 -- -- 82
2019-11-27 18:00:00 10.6 7 Noroeste 26 Noroeste 0 -- -- 81
2019-11-27 17:00:00 10.5 12 Noroeste 34 Noroeste 0 -- -- 85
2019-11-27 16:00:00 10.7 8 Noroeste 27 Noroeste 0 -- -- 86
2019-11-27 15:00:00 11.3 11 Noroeste 24 Norte 0 -- -- 82
2019-11-27 14:00:00 11 10 Noroeste 27 Noroeste 0 -- -- 85
2019-11-27 06:00:00 -- -- -- -- -- -- -- -- --
2019-11-27 05:00:00 -- -- -- -- -- -- -- -- --
2019-11-27 04:00:00 9.8 18 Noroeste 42 Noroeste 0 -- -- 87
2019-11-27 03:00:00 10.4 14 Norte 36 Norte 0 -- -- 89
2019-11-27 02:00:00 10.6 13 Noroeste 34 Noroeste 0.2 -- -- 94
2019-11-27 01:00:00 11.2 12 Noroeste 30 Noroeste 1.4 -- -- 94
2019-11-27 00:00:00 11.8 11 Oeste 32 Oeste 2.2 -- -- 90
2019-11-26 23:00:00 12 10 Oeste 39 Oeste 1.4 -- -- 91
2019-11-26 22:00:00 12.3 10 Oeste 45 Noroeste 0 -- -- 87
2019-11-26 21:00:00 12.7 9 Norte 31 Norte 0 -- -- 83
2019-11-26 20:00:00 13 7 Oeste 33 Noroeste 0 -- -- 88
2019-11-26 19:00:00 12.7 9 Oeste 32 Oeste 3.2 -- -- 97
2019-11-26 18:00:00 12.4 4 Sudeste 15 Sudeste 5.2 -- -- 100
2019-11-26 17:00:00 12.2 4 Sudeste 19 Sudoeste 5.4 -- -- 100
2019-11-26 16:00:00 11.9 0 Calma 6 Sur 5.4 -- -- 100
2019-11-26 15:00:00 11.8 4 Oeste 7 Oeste 9 -- -- 100
2019-11-26 14:00:00 11.7 3 Sur 6 Sur 4.2 -- -- 100
2019-11-26 13:00:00 11.5 2 Sudeste 7 Sudeste 2.4 -- -- 100
2019-11-26 12:00:00 11.4 2 Este 8 Nordeste 2.4 -- -- 100
2019-11-26 11:00:00 11 4 Sur 6 Sur 0.6 -- -- 100
2019-11-26 10:00:00 10.7 3 Sudoeste 5 Sur 0.6 -- -- 100
2019-11-26 09:00:00 10.4 0 Calma 3 Norte 0.8 -- -- 99
2019-11-26 08:00:00 10.3 3 Noroeste 8 Noroeste 1.2 -- -- 99
2019-11-26 07:00:00 10.1 3 Norte 5 Noroeste 0.8 -- -- 98
2019-11-26 06:00:00 10.4 4 Noroeste 12 Sur 0 -- -- 95
2019-11-26 05:00:00 10.9 4 Sudoeste 8 Noroeste 0 -- -- 89
2019-11-26 04:00:00 11.2 3 Noroeste 15 Oeste 0 -- -- 88
2019-11-26 03:00:00 11.2 0 Calma 12 Norte 0 -- -- 83
2019-11-26 02:00:00 11.4 6 Nordeste 18 Nordeste 0 -- -- 83
2019-11-26 01:00:00 12.1 6 Nordeste 22 Noroeste 0 -- -- 82
2019-11-26 00:00:00 12.8 6 Norte 19 Nordeste 0 -- -- 81
2019-11-25 23:00:00 12.8 3 Sudeste 9 Este 0 -- -- 82
2019-11-25 22:00:00 12.7 4 Sur 20 Noroeste 0 -- -- 84
2019-11-25 21:00:00 13.2 8 Oeste 23 Oeste 0 -- -- 83
2019-11-25 20:00:00 13.2 6 Noroeste 25 Oeste 0 -- -- 82
2019-11-25 19:00:00 13.2 6 Noroeste 21 Noroeste 0 -- -- 82
2019-11-25 18:00:00 13.3 7 Noroeste 21 Noroeste 0 -- -- 81
2019-11-25 17:00:00 13.7 9 Noroeste 22 Noroeste 0 -- -- 78
2019-11-25 16:00:00 14.6 6 Oeste 30 Oeste 0 -- -- 73
2019-11-25 15:00:00 15.1 11 Noroeste 26 Noroeste 0 -- -- 71
2019-11-25 14:00:00 15.1 9 Norte 34 Oeste 0 -- -- 71
2019-11-25 13:00:00 14.9 8 Norte 31 Norte 0 -- -- 75
2019-11-25 12:00:00 12.9 15 Norte 33 Noroeste 0 -- -- 84
2019-11-25 11:00:00 12.7 12 Norte 26 Norte 0 -- -- 83
2019-11-25 10:00:00 10.9 3 Nordeste 14 Norte 0 -- -- 99
2019-11-25 09:00:00 10.9 3 Norte 21 Norte 0 -- -- 95
2019-11-25 08:00:00 11.2 9 Norte 22 Norte 0 -- -- 96
2019-11-25 07:00:00 11.8 15 Norte 25 Norte 0 -- -- 90
2019-11-25 06:00:00 10.4 3 Norte 21 Norte 0.2 -- -- 99
2019-11-25 05:00:00 10 4 Noroeste 13 Noroeste 1.2 -- -- 100
2019-11-25 04:00:00 9.3 0 Calma 3 Oeste 0.8 -- -- 100
2019-11-25 03:00:00 9.2 0 Calma 5 Oeste 1.2 -- -- 100
2019-11-25 02:00:00 9.2 0 Calma 3 Noroeste 1.2 -- -- 100
2019-11-25 01:00:00 9 0 Calma 4 Norte 1.4 -- -- 99
2019-11-25 00:00:00 8.8 0 Calma 4 Oeste 1.4 -- -- 99
2019-11-24 23:00:00 8.8 0 Calma 3 Sudeste 1 -- -- 98
2019-11-24 22:00:00 9 0 Calma 6 Este 0.6 -- -- 97
2019-11-24 21:00:00 9.2 3 Nordeste 10 Sur 0 -- -- 95
2019-11-24 20:00:00 8.8 5 Sur 21 Noroeste 0 -- -- 95
2019-11-24 19:00:00 9 3 Oeste 20 Norte 0 -- -- 91
2019-11-24 18:00:00 9.2 4 Norte 28 Noroeste 0 -- -- 85
2019-11-24 17:00:00 10 5 Norte 25 Noroeste 0 -- -- 78
2019-11-24 16:00:00 10.2 12 Noroeste 37 Noroeste 0 -- -- 72
2019-11-24 15:00:00 12.9 10 Noroeste 27 Oeste 0 -- -- 56
2019-11-24 14:00:00 12 5 Sur 15 Sudoeste 0 -- -- 66
2019-11-24 13:00:00 9.1 5 Sur 15 Sudoeste 0 -- -- 75
2019-11-24 12:00:00 7.6 4 Sur 13 Sur 0 -- -- 76
2019-11-24 11:00:00 7.8 4 Sur 27 Noroeste 0 -- -- 76
2019-11-24 10:00:00 9.8 9 Noroeste 18 Oeste 0 -- -- 47
2019-11-24 09:00:00 6.7 3 Sudoeste 21 Norte 0 -- -- 59
2019-11-24 08:00:00 7 8 Noroeste 32 Noroeste 0 -- -- 55
2019-11-24 07:00:00 6.3 11 Noroeste 27 Noroeste 0 -- -- 58
2019-11-24 06:00:00 7.2 9 Norte 33 Norte 0 -- -- 55
2019-11-24 05:00:00 7.4 14 Norte 33 Norte 0 -- -- 60
2019-11-24 04:00:00 7.4 10 Norte 33 Norte 0 -- -- 63
2019-11-24 03:00:00 7.4 8 Norte 38 Norte 0 -- -- 66
2019-11-24 02:00:00 7.5 17 Norte 33 Norte 0 -- -- 68
2019-11-24 01:00:00 7.6 18 Norte 39 Norte 0 -- -- 70
2019-11-24 00:00:00 8.3 31 Norte 45 Norte 0 -- -- 64
2019-11-23 23:00:00 8.2 30 Norte 52 Norte 0 -- -- 67
2019-11-23 22:00:00 8.2 33 Norte 53 Norte 0 -- -- 69
2019-11-23 21:00:00 8.2 17 Norte 37 Norte 0 -- -- 66
2019-11-23 20:00:00 8.4 19 Norte 34 Norte 0 -- -- 65
2019-11-23 19:00:00 8 14 Norte 25 Norte 0 -- -- 68
2019-11-23 18:00:00 9.3 9 Norte 26 Noroeste 0 -- -- 64
2019-11-23 17:00:00 10.1 8 Noroeste 29 Noroeste 0 -- -- 59
2019-11-23 16:00:00 10.7 13 Noroeste 45 Norte 0 -- -- 56
2019-11-23 15:00:00 11.3 18 Norte 40 Noroeste 0 -- -- 56
2019-11-23 14:00:00 10.2 12 Noroeste 30 Noroeste 0 -- -- 60
2019-11-23 13:00:00 11.6 8 Noroeste 35 Noroeste 0 -- -- 58
2019-11-23 12:00:00 11 19 Noroeste 42 Noroeste 0 -- -- 56
2019-11-23 11:00:00 9.9 17 Noroeste 34 Oeste 0 -- -- 58
2019-11-23 10:00:00 8.9 10 Noroeste 31 Oeste 0 -- -- 62
2019-11-23 09:00:00 7.3 7 Noroeste 31 Noroeste 0 -- -- 68
2019-11-23 08:00:00 6.4 21 Norte 55 Norte 0 -- -- 72
2019-11-23 07:00:00 6.6 37 Norte 69 Norte 0 -- -- 65
2019-11-23 06:00:00 6.7 39 Norte 62 Norte 0 -- -- 70
2019-11-23 05:00:00 6.8 24 Norte 39 Noroeste 0 -- -- 79
2019-11-23 04:00:00 6.8 22 Norte 53 Noroeste 0 -- -- 82
2019-11-23 03:00:00 6.8 15 Norte 43 Norte 0 -- -- 79
2019-11-23 02:00:00 6.8 17 Norte 46 Noroeste 0 -- -- 80
2019-11-23 01:00:00 7.2 18 Norte 47 Noroeste 1.4 -- -- 89
2019-11-23 00:00:00 8.4 18 Noroeste 41 Oeste 0.4 -- -- 85
2019-11-22 23:00:00 8.8 17 Noroeste 49 Noroeste 0.8 -- -- 88
2019-11-22 22:00:00 9.2 9 Sudoeste 39 Norte 0 -- -- 89
2019-11-22 21:00:00 9.4 10 Noroeste 42 Norte 0 -- -- 82
2019-11-22 20:00:00 9.4 15 Noroeste 43 Norte 0 -- -- 82
2019-11-22 19:00:00 9.8 6 Sudeste 37 Oeste 0.2 -- -- 83
2019-11-22 18:00:00 10.3 9 Este 28 Norte 0 -- -- 87
2019-11-22 17:00:00 11.8 14 Noroeste 48 Noroeste 0 -- -- 76
2019-11-22 16:00:00 12.5 14 Oeste 32 Oeste 0.2 -- -- 85
2019-11-22 15:00:00 11.6 5 Sur 15 Sudoeste 0 -- -- 100
2019-11-22 14:00:00 10.2 0 Calma 6 Nordeste 1.4 -- -- 100
2019-11-22 13:00:00 9.5 4 Nordeste 8 Norte 9.4 -- -- 100
2019-11-22 12:00:00 8.6 2 Oeste 7 Norte 9 -- -- 100
2019-11-22 11:00:00 8.3 0 Calma 3 Norte 10 -- -- 100
2019-11-22 10:00:00 8.2 0 Calma 6 Oeste 7.2 -- -- 100
2019-11-22 09:00:00 8.1 0 Calma 3 Oeste 8.4 -- -- 100
2019-11-22 08:00:00 8 0 Calma 9 Sur 8.4 -- -- 100
2019-11-22 07:00:00 8 4 Sudeste 10 Este 6 -- -- 100
2019-11-22 06:00:00 7.9 4 Sur 8 Sur 4.4 -- -- 100
2019-11-22 05:00:00 7.9 0 Calma 9 Sudeste 2.4 -- -- 100
2019-11-22 04:00:00 7.6 0 Calma 5 Nordeste 2.6 -- -- 100
2019-11-22 03:00:00 7.4 0 Calma 8 Sudoeste 4 -- -- 100
2019-11-22 02:00:00 7.5 0 Calma 4 Oeste 2 -- -- 100
2019-11-22 01:00:00 7.5 2 Sudoeste 6 Sur 1 -- -- 100
2019-11-22 00:00:00 7.2 2 Oeste 5 Noroeste 2 -- -- 100
2019-11-21 23:00:00 7.1 0 Calma 6 Noroeste 1 -- -- 99
2019-11-21 22:00:00 7.1 2 Este 9 Noroeste 1.6 -- -- 98
2019-11-21 21:00:00 7.2 0 Calma 7 Noroeste 0 -- -- 95
2019-11-21 20:00:00 6.8 0 Calma 9 Noroeste 0 -- -- 95
2019-11-21 19:00:00 6.4 9 Noroeste 12 Noroeste 0 -- -- 95
2019-11-21 18:00:00 7.5 6 Noroeste 10 Noroeste 0 -- -- 94
2019-11-21 17:00:00 8.8 0 Calma 14 Sur 0 -- -- 97
2019-11-21 16:00:00 10.3 4 Sur 9 Sur 0 -- -- 94
2019-11-21 15:00:00 8.7 3 Sudeste 11 Sur 0 -- -- 99
2019-11-21 14:00:00 8.2 0 Calma 5 Sudeste 0.2 -- -- 100
2019-11-21 13:00:00 7.3 2 Sur 6 Sudeste 0 -- -- 100
2019-11-21 12:00:00 7.3 3 Sur 6 Sur 0.2 -- -- 100
2019-11-21 11:00:00 7 0 Calma 2 Noroeste 2 -- -- 100
2019-11-21 10:00:00 6.5 0 Calma 3 Este 0.2 -- -- 100
2019-11-21 09:00:00 6.1 0 Calma 5 Oeste 0.4 -- -- 100
2019-11-21 08:00:00 -- -- -- -- -- -- -- -- --
2019-11-21 07:00:00 -- -- -- -- -- -- -- -- --
2019-11-21 06:00:00 -- -- -- -- -- -- -- -- --
2019-11-21 05:00:00 -- -- -- -- -- -- -- -- --
2019-11-21 04:00:00 -- -- -- -- -- -- -- -- --
2019-11-21 03:00:00 -- -- -- -- -- -- -- -- --
2019-11-21 02:00:00 -- -- -- -- -- -- -- -- --
2019-11-21 01:00:00 -- -- -- -- -- -- -- -- --
2019-11-21 00:00:00 -- -- -- -- -- -- -- -- --
2019-11-20 23:00:00 -- -- -- -- -- -- -- -- --
2019-11-20 22:00:00 -- -- -- -- -- -- -- -- --
2019-11-20 21:00:00 -- -- -- -- -- -- -- -- --
2019-11-20 20:00:00 -- -- -- -- -- -- -- -- --
2019-11-20 19:00:00 5.2 0 Calma 3 Sudoeste 0.2 -- -- 98
2019-11-20 18:00:00 5.4 0 Calma 5 Oeste 0 -- -- 97
2019-11-20 17:00:00 5.5 0 Calma 7 Oeste 2.2 -- -- 97
2019-11-20 16:00:00 5.7 0 Calma 8 Noroeste 0.6 -- -- 96
2019-11-20 15:00:00 5.3 5 Noroeste 11 Noroeste 0.4 -- -- 94
2019-11-20 14:00:00 5 6 Noroeste 10 Noroeste 1.8 -- -- 94
2019-11-20 13:00:00 5 8 Noroeste 13 Noroeste 2.4 -- -- 94
2019-11-20 12:00:00 4.6 6 Noroeste 13 Noroeste 1.6 -- -- 94
2019-11-20 11:00:00 4.1 8 Noroeste 15 Noroeste 2.8 -- -- 93
2019-11-20 10:00:00 4.6 5 Noroeste 12 Noroeste 3 -- -- 94
2019-11-20 09:00:00 4.8 4 Norte 11 Noroeste 1 -- -- 93
2019-11-20 08:00:00 5.3 3 Oeste 13 Oeste 0.2 -- -- 90
2019-11-20 07:00:00 5.4 7 Noroeste 12 Norte 0 -- -- 88
2019-11-20 06:00:00 5.8 2 Sudoeste 5 Oeste 0.2 -- -- 88
2019-11-20 05:00:00 6.2 0 Calma 6 Noroeste 0 -- -- 82
2019-11-20 04:00:00 6.4 0 Calma 3 Noroeste 0 -- -- 77
2019-11-20 03:00:00 6.4 0 Calma 6 Norte 0 -- -- 76
2019-11-20 02:00:00 6.2 2 Noroeste 8 Noroeste 0 -- -- 76
2019-11-20 01:00:00 6.3 0 Calma 4 Sur 0 -- -- 76
2019-11-20 00:00:00 6.3 2 Noroeste 5 Noroeste 0 -- -- 75
2019-11-19 23:00:00 6.4 2 Noroeste 4 Noroeste 0 -- -- 77
2019-11-19 22:00:00 6.6 0 Calma 9 Noroeste 0 -- -- 76
2019-11-19 21:00:00 6.7 0 Calma 5 Noroeste 0 -- -- 75
2019-11-19 20:00:00 6.6 0 Calma 4 Noroeste 0 -- -- 75
2019-11-19 19:00:00 6.2 3 Noroeste 6 Noroeste 0 -- -- 78
2019-11-19 18:00:00 6.5 0 Calma 3 Sudoeste 0 -- -- 81
2019-11-19 17:00:00 7.9 3 Sur 8 Sur 0 -- -- 73
2019-11-19 16:00:00 8.7 3 Sur 10 Sudeste 0 -- -- 72
2019-11-19 15:00:00 9.2 4 Sur 9 Sudeste 0 -- -- 64
2019-11-19 14:00:00 8.6 3 Sudeste 9 Sur 0 -- -- 68
2019-11-19 13:00:00 8.5 5 Sur 10 Sudeste 0 -- -- 68
2019-11-19 12:00:00 8.5 4 Sudeste 9 Sudeste 0 -- -- 66
2019-11-19 11:00:00 7.3 3 Sudeste 7 Sudeste 0 -- -- 70
2019-11-19 10:00:00 5.1 2 Sur 5 Noroeste 0 -- -- 81
2019-11-19 09:00:00 4 0 Calma 6 Norte 0 -- -- 82
2019-11-19 08:00:00 4.2 0 Calma 6 Noroeste 0 -- -- 81
2019-11-19 07:00:00 5.1 3 Oeste 13 Noroeste 0 -- -- 75
2019-11-19 06:00:00 4.9 9 Noroeste 13 Noroeste 0 -- -- 76
2019-11-19 05:00:00 5.1 5 Noroeste 15 Noroeste 0 -- -- 74
2019-11-19 04:00:00 5.1 11 Noroeste 17 Noroeste 0 -- -- 76
2019-11-19 03:00:00 5.2 3 Noroeste 13 Noroeste 0 -- -- 73
2019-11-19 02:00:00 5.7 8 Noroeste 17 Noroeste 0 -- -- 71
2019-11-19 01:00:00 5.2 10 Noroeste 17 Noroeste 0 -- -- 75
2019-11-19 00:00:00 5.6 5 Noroeste 14 Noroeste 0 -- -- 71
2019-11-18 23:00:00 6 8 Noroeste 18 Noroeste 0 -- -- 71
2019-11-18 22:00:00 6.5 9 Noroeste 14 Noroeste 0 -- -- 67
2019-11-18 21:00:00 6.7 8 Noroeste 17 Noroeste 0 -- -- 68
2019-11-18 20:00:00 6.3 8 Noroeste 13 Noroeste 0 -- -- 68
2019-11-18 19:00:00 7 8 Noroeste 17 Noroeste 0 -- -- 62
2019-11-18 18:00:00 7.5 10 Noroeste 18 Norte 0 -- -- 64
2019-11-18 17:00:00 8.7 5 Noroeste 9 Noroeste 0 -- -- 68
2019-11-18 16:00:00 11.1 4 Sur 10 Sudeste 0 -- -- 60
2019-11-18 15:00:00 12 6 Sur 13 Sudeste 0 -- -- 59
2019-11-18 14:00:00 11.1 7 Sudeste 15 Sudeste 0 -- -- 63
2019-11-18 13:00:00 11.1 8 Sur 24 Sur 0 -- -- 60
2019-11-18 12:00:00 12.4 5 Sur 14 Sudeste 0 -- -- 55
2019-11-18 11:00:00 10.3 4 Sudeste 13 Sur 0 -- -- 62
2019-11-18 10:00:00 9.6 10 Norte 23 Noroeste 0 -- -- 58
2019-11-18 09:00:00 7 3 Sur 20 Norte 0 -- -- 67
2019-11-18 08:00:00 6 14 Norte 27 Norte 0 -- -- 66
2019-11-18 07:00:00 6.7 6 Norte 42 Norte 0 -- -- 63
2019-11-18 06:00:00 6.9 26 Norte 49 Norte 0 -- -- 66
2019-11-18 05:00:00 7 22 Norte 42 Norte 0 -- -- 65
2019-11-18 04:00:00 6 21 Noroeste 35 Noroeste 0 -- -- 73
2019-11-18 03:00:00 5.9 13 Noroeste 28 Noroeste 0 -- -- 76
2019-11-18 02:00:00 6.5 10 Norte 28 Este 0 -- -- 71
2019-11-18 01:00:00 7.4 12 Este 69 Noroeste 0 -- -- 63
2019-11-18 00:00:00 7.7 33 Noroeste 71 Noroeste 0 -- -- 60
2019-11-17 23:00:00 8.1 44 Norte 63 Noroeste 0 -- -- 63
2019-11-17 22:00:00 7.9 30 Norte 47 Norte 0 -- -- 77
2019-11-17 21:00:00 8.2 19 Norte 39 Noroeste 0.2 -- -- 87
2019-11-17 20:00:00 8.6 20 Norte 37 Norte 0.4 -- -- 92
2019-11-17 19:00:00 8.8 15 Noroeste 29 Noroeste 1.2 -- -- 94
2019-11-17 18:00:00 8.9 9 Noroeste 31 Norte 1.2 -- -- 94
2019-11-17 17:00:00 8.2 7 Norte 29 Noroeste 1.2 -- -- 93
2019-11-17 16:00:00 8.7 15 Noroeste 30 Noroeste 0.2 -- -- 90
2019-11-17 15:00:00 12 10 Noroeste 30 Norte 0 -- -- 75
2019-11-17 14:00:00 11.6 16 Noroeste 29 Noroeste 0 -- -- 75
2019-11-17 13:00:00 9.8 11 Norte 22 Norte 0 -- -- 80
2019-11-17 12:00:00 7.1 3 Sudeste 13 Este 0 -- -- 92
2019-11-17 11:00:00 5.7 4 Sur 8 Sur 0 -- -- 93
2019-11-17 10:00:00 4.7 0 Calma 7 Sur 0 -- -- 81
2019-11-17 09:00:00 4 0 Calma 4 Sudeste 0 -- -- 85
2019-11-17 08:00:00 3.8 0 Calma 5 Noroeste 0 -- -- 82
2019-11-17 07:00:00 4.3 3 Sudoeste 6 Sudoeste 0 -- -- 73
2019-11-17 06:00:00 4.4 0 Calma 5 Sur 0 -- -- 70
2019-11-17 05:00:00 4.5 3 Sudoeste 7 Sudoeste 0 -- -- 68
2019-11-17 04:00:00 4 2 Sur 13 Sur 0 -- -- 68
2019-11-17 03:00:00 5.8 5 Oeste 28 Noroeste 0 -- -- 63
2019-11-17 02:00:00 5.2 10 Norte 33 Norte 0 -- -- 66
2019-11-17 01:00:00 4.8 10 Nordeste 26 Noroeste 0 -- -- 69
2019-11-17 00:00:00 5.1 16 Norte 28 Noroeste 0 -- -- 65
2019-11-16 23:00:00 5.7 9 Noroeste 24 Norte 0 -- -- 64
2019-11-16 22:00:00 6 3 Sudoeste 15 Norte 0 -- -- 64
2019-11-16 21:00:00 6.4 9 Norte 32 Norte 0 -- -- 63
2019-11-16 20:00:00 6.7 12 Norte 27 Norte 0 -- -- 59
2019-11-16 19:00:00 6 4 Oeste 25 Norte 0 -- -- 66
2019-11-16 18:00:00 6.9 10 Noroeste 30 Noroeste 0 -- -- 59
2019-11-16 17:00:00 8.3 7 Oeste 31 Oeste 0 -- -- 56
2019-11-16 16:00:00 10 13 Noroeste 26 Oeste 0 -- -- 48
2019-11-16 15:00:00 10.2 15 Norte 29 Norte 0 -- -- 46
2019-11-16 14:00:00 10 4 Sudeste 17 Sur 0 -- -- 57
2019-11-16 13:00:00 10 7 Sudeste 17 Sudeste 0 -- -- 51
2019-11-16 12:00:00 9.5 10 Sudeste 21 Sudeste 0 -- -- 52
2019-11-16 11:00:00 8.9 5 Sudeste 9 Sudeste 0 -- -- 56
2019-11-16 10:00:00 7.2 5 Sudeste 9 Sudeste 0 -- -- 55
2019-11-16 09:00:00 5.9 2 Sudeste 22 Noroeste 0 -- -- 58
2019-11-16 08:00:00 5.1 17 Norte 33 Noroeste 0 -- -- 58
2019-11-16 07:00:00 5.1 20 Norte 35 Norte 0 -- -- 59
2019-11-16 06:00:00 4.4 13 Norte 25 Oeste 0 -- -- 62
2019-11-16 05:00:00 4.2 14 Norte 32 Norte 0 -- -- 64
2019-11-16 04:00:00 4.4 19 Norte 38 Norte 0 -- -- 63
2019-11-16 03:00:00 4.8 27 Norte 45 Norte 0 -- -- 65
2019-11-16 02:00:00 5 17 Norte 36 Norte 0 -- -- 65
2019-11-16 01:00:00 3.8 22 Norte 31 Norte 0 -- -- 72
2019-11-16 00:00:00 4.2 16 Norte 37 Norte 0 -- -- 70
2019-11-15 23:00:00 4.8 22 Norte 41 Norte 0 -- -- 66
2019-11-15 22:00:00 4.7 10 Norte 40 Norte 0 -- -- 65
2019-11-15 21:00:00 4.9 13 Norte 32 Norte 0 -- -- 65
2019-11-15 20:00:00 4.4 14 Norte 32 Norte 0 -- -- 69
2019-11-15 19:00:00 5.2 21 Norte 32 Noroeste 0 -- -- 65
2019-11-15 18:00:00 5.3 10 Norte 26 Noroeste 0 -- -- 65
2019-11-15 17:00:00 6 14 Noroeste 30 Noroeste 0 -- -- 59
2019-11-15 16:00:00 7.7 14 Noroeste 36 Noroeste 0 -- -- 54
2019-11-15 15:00:00 7.9 13 Norte 40 Noroeste 0 -- -- 56
2019-11-15 14:00:00 8.9 11 Norte 39 Noroeste 0 -- -- 59
2019-11-15 13:00:00 8.2 14 Norte 34 Oeste 0 -- -- 61
2019-11-15 12:00:00 6.1 14 Noroeste 30 Noroeste 0 -- -- 63
2019-11-15 11:00:00 5.7 12 Noroeste 25 Noroeste 0 -- -- 66
2019-11-15 10:00:00 4.7 13 Norte 30 Norte 0 -- -- 68
2019-11-15 09:00:00 4.2 8 Noroeste 23 Noroeste 0 -- -- 69
2019-11-15 08:00:00 3.5 4 Oeste 37 Noroeste 0 -- -- 74
2019-11-15 07:00:00 3.7 18 Norte 47 Norte 0 -- -- 74
2019-11-15 06:00:00 4.3 18 Norte 58 Noroeste 0 -- -- 69
2019-11-15 05:00:00 4.6 26 Norte 67 Norte 0 -- -- 66
2019-11-15 04:00:00 4.3 25 Norte 77 Norte 0.2 -- -- 68
2019-11-15 03:00:00 4.7 49 Norte 66 Norte 0 -- -- 66
2019-11-15 02:00:00 5.1 34 Norte 52 Noroeste 0 -- -- 67
2019-11-15 01:00:00 4.9 22 Norte 42 Norte 0 -- -- 74
2019-11-15 00:00:00 5.4 22 Norte 62 Norte 0 -- -- 69